KJCT/JCT METAR and TAF weather

Enter ICAO airport designator
Station Type Date Time Source
KJCT METAR 2020/01/24 20:51 UTC NOAA

KJCT 242051Z AUTO 24006KT 10SM CLR 19/02 A3009 RMK AO2 SLP170 T01940022 56037


Station Type Date Time Source
KJCT Decoded METAR 2020/01/24 20:51 UTC NOAA

KIMBLE COUNTY AIRPORT, TX, United States (KJCT) 30-31N 099-46W 523M
Jan 24, 2020 - 03:51 PM EST / 2020.01.24 2051 UTC
Wind: from the WSW (240 degrees) at 7 MPH (6 KT):0
Visibility: 10 mile(s):0
Sky conditions: clear
Temperature: 66.9 F (19.4 C)
Dew Point: 36.0 F (2.2 C)
Relative Humidity: 31%
Pressure (altimeter): 30.09 in. Hg (1018 hPa)
Pressure tendency: 0.11 inches (3.7 hPa) lower than three hours ago
ob: KJCT 242051Z AUTO 24006KT 10SM CLR 19/02 A3009 RMK AO2 SLP170 T01940022 56037
cycle: 21

Station Type Date Time Source
KJCT TAF 2020/01/24 18:22 UTC NOAA

TAF KJCT 241720Z 2418/2518 00000KT P6SM SKC
FM251200 19005KT P6SM BKN050
FM251700 19010KT P6SM BKN025

Example: see airport list